Time;durP1;ratioP1;P1;durP2;ratioP2;P2;SDS_P1;SDS_P2;PMS_P1;PMS_P2;Temp;Humidity;BMP_temperature;BMP_pressure;BME280_temperature;BME280_humidity;BME280_pressure;Samples;Min_cycle;Max_cycle;Signal;HPM_P1;HPM_P2
2023/04/29 00:01:09;;;;;;;;;13.33;10.33;;;;;;;;119805;1191;24976;-61
2023/04/29 00:03:37;;;;;;;;;10.50;8.25;;;;;;;;119922;1182;25248;-60
2023/04/29 00:06:06;;;;;;;;;8.00;7.25;;;;;;;;119803;1191;24873;-60
2023/04/29 00:08:35;;;;;;;;;6.33;6.33;;;;;;;;119921;1190;25490;-60
2023/04/29 00:11:03;;;;;;;;;7.50;7.50;;;;;;;;119911;1190;26217;-60
2023/04/29 00:13:31;;;;;;;;;9.00;5.00;;;;;;;;119934;1181;25468;-60
2023/04/29 00:15:59;;;;;;;;;8.33;6.67;;;;;;;;119938;1181;25680;-60
2023/04/29 00:18:27;;;;;;;;;7.00;7.00;;;;;;;;119941;1190;24665;-60
2023/04/29 00:20:56;;;;;;;;;11.50;7.50;;;;;;;;119900;1190;25068;-60
2023/04/29 00:23:24;;;;;;;;;9.67;7.00;;;;;;;;119904;1190;24900;-60
2023/04/29 00:25:52;;;;;;;;;10.75;7.00;;;;;;;;119916;1190;25447;-60
2023/04/29 00:28:20;;;;;;;;;6.00;4.00;;;;;;;;119925;1191;25606;-60
2023/04/29 00:30:48;;;;;;;;;6.67;6.67;;;;;;;;119917;1191;25370;-60
2023/04/29 00:33:17;;;;;;;;;7.00;6.00;;;;;;;;119906;1191;25359;-60
2023/04/29 00:35:45;;;;;;;;;9.25;7.00;;;;;;;;119934;1191;25068;-60
2023/04/29 00:38:14;;;;;;;;;7.00;5.00;;;;;;;;119914;1191;24683;-60
2023/04/29 00:40:42;;;;;;;;;9.00;7.25;;;;;;;;119877;1191;24809;-60
2023/04/29 00:43:11;;;;;;;;;4.50;4.00;;;;;;;;119890;1190;24946;-60
2023/04/29 00:45:39;;;;;;;;;4.33;4.33;;;;;;;;119893;1190;25333;-60
2023/04/29 00:48:07;;;;;;;;;5.25;5.25;;;;;;;;119889;1190;25288;-60
2023/04/29 00:50:38;;;;;;;;;7.67;7.00;;;;;;;;119926;1190;25031;-62
2023/04/29 00:53:07;;;;;;;;;4.75;4.75;;;;;;;;119935;1181;25071;-59
2023/04/29 00:55:36;;;;;;;;;4.75;4.75;;;;;;;;119886;1182;27046;-59
2023/04/29 00:58:04;;;;;;;;;7.33;6.33;;;;;;;;119897;1190;26232;-60
2023/04/29 01:00:32;;;;;;;;;5.00;5.00;;;;;;;;119926;1191;25436;-59
2023/04/29 01:03:00;;;;;;;;;9.00;6.00;;;;;;;;119921;1182;25138;-59
2023/04/29 01:05:29;;;;;;;;;8.25;7.00;;;;;;;;119906;1191;25120;-59
2023/04/29 01:08:07;;;;;;;;;7.00;5.00;;;;;;;;119888;1191;25285;-59
2023/04/29 01:10:43;;;;;;;;;7.00;5.00;;;;;;;;119912;1182;25124;-60
2023/04/29 01:13:29;;;;;;;;;3.75;3.50;;;;;;;;119906;1186;26250;-59
2023/04/29 01:16:03;;;;;;;;;9.75;5.00;;;;;;;;120168;1182;24798;-59
2023/04/29 01:18:35;;;;;;;;;9.25;6.00;;;;;;;;119920;1190;25095;-59
2023/04/29 01:21:03;;;;;;;;;7.00;6.00;;;;;;;;119900;1182;24994;-59
2023/04/29 01:23:32;;;;;;;;;5.00;5.00;;;;;;;;119924;1182;25168;-60
2023/04/29 01:26:00;;;;;;;;;9.33;7.67;;;;;;;;119915;1190;25502;-59
2023/04/29 01:28:54;;;;;;;;;7.25;6.75;;;;;;;;119897;1190;25431;-59
2023/04/29 01:31:22;;;;;;;;;5.75;5.75;;;;;;;;119787;1191;25173;-60
2023/04/29 01:34:22;;;;;;;;;8.50;6.50;;;;;;;;119878;1191;25163;-59
2023/04/29 01:37:36;;;;;;;;;8.50;6.25;;;;;;;;119884;1191;24679;-59
2023/04/29 01:40:13;;;;;;;;;10.25;4.25;;;;;;;;119790;1191;24928;-59
2023/04/29 01:42:51;;;;;;;;;7.00;7.00;;;;;;;;119891;1182;25081;-59
2023/04/29 01:45:20;;;;;;;;;8.00;6.00;;;;;;;;119811;1190;25062;-59
2023/04/29 01:47:50;;;;;;;;;6.67;6.00;;;;;;;;119906;1190;24846;-59
2023/04/29 01:50:20;;;;;;;;;5.75;5.75;;;;;;;;119871;1190;25199;-61
2023/04/29 01:52:48;;;;;;;;;6.50;4.00;;;;;;;;119935;1190;25282;-60
2023/04/29 01:55:16;;;;;;;;;8.33;6.00;;;;;;;;119922;1190;25419;-60
2023/04/29 01:57:45;;;;;;;;;7.33;6.33;;;;;;;;119924;1181;24826;-60
2023/04/29 02:00:13;;;;;;;;;8.50;6.00;;;;;;;;119942;1181;25577;-60
2023/04/29 02:02:41;;;;;;;;;6.00;5.00;;;;;;;;119901;1190;25495;-60
2023/04/29 02:05:10;;;;;;;;;5.00;5.00;;;;;;;;119901;1190;25453;-61
2023/04/29 02:07:38;;;;;;;;;7.00;7.00;;;;;;;;119954;1182;25096;-61
2023/04/29 02:10:07;;;;;;;;;7.00;5.75;;;;;;;;119897;1190;24887;-60
2023/04/29 02:12:35;;;;;;;;;6.00;6.00;;;;;;;;119937;1190;25368;-62
2023/04/29 02:15:04;;;;;;;;;8.33;5.00;;;;;;;;119910;1190;25915;-61
2023/04/29 02:17:35;;;;;;;;;7.00;4.50;;;;;;;;119894;1190;25065;-61
2023/04/29 02:20:03;;;;;;;;;5.00;5.00;;;;;;;;119900;1190;24999;-61
2023/04/29 02:22:32;;;;;;;;;6.67;4.67;;;;;;;;119912;1182;25491;-61
2023/04/29 02:25:00;;;;;;;;;7.75;5.75;;;;;;;;119788;1191;25465;-60
2023/04/29 02:27:28;;;;;;;;;7.67;6.00;;;;;;;;119913;1191;25075;-61
2023/04/29 02:29:56;;;;;;;;;4.67;4.00;;;;;;;;119903;1191;25479;-61
2023/04/29 02:32:24;;;;;;;;;7.75;4.00;;;;;;;;119920;1191;25567;-60
2023/04/29 02:34:52;;;;;;;;;3.75;2.50;;;;;;;;119916;1182;25520;-60
2023/04/29 02:37:21;;;;;;;;;5.25;5.25;;;;;;;;119830;1183;25480;-61
2023/04/29 02:39:49;;;;;;;;;5.00;4.33;;;;;;;;119901;1191;24809;-60
2023/04/29 02:42:19;;;;;;;;;6.00;3.50;;;;;;;;119797;1191;25111;-61
2023/04/29 02:44:47;;;;;;;;;8.00;6.25;;;;;;;;119894;1191;25323;-61
2023/04/29 02:47:15;;;;;;;;;6.50;5.50;;;;;;;;119925;1186;25628;-61
2023/04/29 02:49:43;;;;;;;;;5.50;5.50;;;;;;;;119855;1191;25198;-61
2023/04/29 02:52:12;;;;;;;;;4.25;3.25;;;;;;;;119897;1191;25485;-61
2023/04/29 02:54:40;;;;;;;;;6.25;3.75;;;;;;;;119831;1187;25623;-61
2023/04/29 02:57:09;;;;;;;;;6.00;3.67;;;;;;;;119930;1191;25337;-61
2023/04/29 02:59:37;;;;;;;;;2.50;2.50;;;;;;;;119925;1182;24913;-61
2023/04/29 03:02:05;;;;;;;;;6.00;3.25;;;;;;;;119924;1191;24709;-60
2023/04/29 03:04:33;;;;;;;;;6.00;4.67;;;;;;;;119906;1191;25419;-61
2023/04/29 03:07:03;;;;;;;;;4.50;4.25;;;;;;;;119875;1184;24716;-61
2023/04/29 03:09:31;;;;;;;;;7.00;6.33;;;;;;;;119891;1190;25770;-60
2023/04/29 03:11:59;;;;;;;;;4.67;4.67;;;;;;;;119926;1191;25669;-61
2023/04/29 03:14:28;;;;;;;;;5.00;5.00;;;;;;;;119941;1182;24971;-61
2023/04/29 03:16:56;;;;;;;;;7.00;6.33;;;;;;;;119912;1191;24843;-61
2023/04/29 03:19:25;;;;;;;;;6.00;6.00;;;;;;;;119948;1182;25152;-61
2023/04/29 03:21:53;;;;;;;;;2.25;2.25;;;;;;;;119906;1182;25422;-61
2023/04/29 03:24:21;;;;;;;;;7.33;4.67;;;;;;;;119947;1191;25525;-61
2023/04/29 03:26:49;;;;;;;;;2.50;2.00;;;;;;;;119936;1179;25416;-61
2023/04/29 03:29:17;;;;;;;;;5.75;5.75;;;;;;;;119916;1190;25289;-60
2023/04/29 03:31:46;;;;;;;;;4.25;4.25;;;;;;;;119914;1186;25794;-60
2023/04/29 03:34:14;;;;;;;;;4.00;4.00;;;;;;;;119885;1191;25194;-60
2023/04/29 03:36:42;;;;;;;;;4.25;4.25;;;;;;;;119924;1191;25369;-60
2023/04/29 03:39:13;;;;;;;;;4.75;4.75;;;;;;;;119909;1191;24983;-60
2023/04/29 03:41:41;;;;;;;;;4.00;4.00;;;;;;;;119925;1191;25410;-60
2023/04/29 03:44:10;;;;;;;;;6.00;6.00;;;;;;;;119871;1182;24948;-60
2023/04/29 03:46:38;;;;;;;;;6.50;5.00;;;;;;;;119919;1182;25539;-60
2023/04/29 03:49:06;;;;;;;;;5.50;5.00;;;;;;;;119914;1187;24684;-60
2023/04/29 03:51:34;;;;;;;;;6.00;4.25;;;;;;;;119896;1187;25628;-60
2023/04/29 03:54:02;;;;;;;;;5.33;5.00;;;;;;;;119902;1191;24900;-60
2023/04/29 03:56:30;;;;;;;;;6.25;6.25;;;;;;;;119895;1191;24812;-60
2023/04/29 03:58:58;;;;;;;;;9.50;8.25;;;;;;;;119900;1186;25660;-60
2023/04/29 04:01:27;;;;;;;;;3.75;3.00;;;;;;;;119909;1190;24773;-60
2023/04/29 04:03:55;;;;;;;;;6.00;2.00;;;;;;;;119720;1190;25357;-60
2023/04/29 04:06:23;;;;;;;;;9.00;5.50;;;;;;;;119945;1190;25365;-60
2023/04/29 04:08:51;;;;;;;;;6.00;6.00;;;;;;;;119913;1190;25237;-60
2023/04/29 04:11:20;;;;;;;;;8.00;6.00;;;;;;;;119919;1190;25113;-60
2023/04/29 04:13:48;;;;;;;;;6.67;5.33;;;;;;;;119916;1182;25435;-60
2023/04/29 04:16:17;;;;;;;;;5.00;5.00;;;;;;;;119911;1190;24857;-61
2023/04/29 04:18:45;;;;;;;;;5.50;5.00;;;;;;;;119893;1182;25092;-60
2023/04/29 04:21:13;;;;;;;;;5.50;4.00;;;;;;;;119910;1181;25535;-60
2023/04/29 04:23:42;;;;;;;;;8.67;6.00;;;;;;;;119880;1187;25873;-60
2023/04/29 04:26:11;;;;;;;;;8.00;8.00;;;;;;;;119899;1182;25385;-60
2023/04/29 04:28:39;;;;;;;;;8.00;5.00;;;;;;;;119936;1183;25390;-60
2023/04/29 04:31:07;;;;;;;;;6.00;6.00;;;;;;;;119943;1181;24701;-60
2023/04/29 04:33:36;;;;;;;;;6.00;5.25;;;;;;;;119909;1191;25594;-60
2023/04/29 04:36:04;;;;;;;;;6.00;5.75;;;;;;;;119910;1191;25306;-60
2023/04/29 04:38:33;;;;;;;;;11.00;5.75;;;;;;;;119904;1191;25340;-60
2023/04/29 04:41:01;;;;;;;;;5.50;5.50;;;;;;;;119892;1187;24677;-60
2023/04/29 04:43:29;;;;;;;;;5.00;5.00;;;;;;;;119884;1191;25564;-60
2023/04/29 04:45:57;;;;;;;;;6.67;5.33;;;;;;;;119922;1191;24917;-60
2023/04/29 04:48:26;;;;;;;;;6.75;4.75;;;;;;;;119901;1191;25383;-60
2023/04/29 04:50:54;;;;;;;;;6.33;6.33;;;;;;;;119922;1191;25551;-60
2023/04/29 04:53:22;;;;;;;;;6.00;6.00;;;;;;;;119901;1182;24869;-60
2023/04/29 04:55:51;;;;;;;;;7.00;7.00;;;;;;;;119904;1191;25557;-60
2023/04/29 04:58:19;;;;;;;;;7.00;7.00;;;;;;;;119885;1191;25216;-60
2023/04/29 05:00:47;;;;;;;;;8.00;5.25;;;;;;;;119904;1182;25114;-60
2023/04/29 05:03:15;;;;;;;;;6.00;4.75;;;;;;;;119913;1182;25232;-60
2023/04/29 05:05:43;;;;;;;;;8.75;6.00;;;;;;;;119891;1186;25539;-60
2023/04/29 05:08:12;;;;;;;;;5.75;5.75;;;;;;;;119897;1190;25142;-60
2023/04/29 05:10:40;;;;;;;;;6.33;6.00;;;;;;;;119904;1190;25432;-60
2023/04/29 05:13:08;;;;;;;;;5.00;5.00;;;;;;;;119918;1182;24979;-60
2023/04/29 05:15:36;;;;;;;;;7.00;4.75;;;;;;;;119908;1190;25479;-60
2023/04/29 05:18:04;;;;;;;;;7.00;5.00;;;;;;;;119894;1190;26032;-60
2023/04/29 05:20:32;;;;;;;;;5.00;5.00;;;;;;;;119919;1190;24866;-60
2023/04/29 05:23:01;;;;;;;;;8.67;7.67;;;;;;;;119928;1186;24932;-60
2023/04/29 05:25:30;;;;;;;;;8.00;5.33;;;;;;;;119889;1190;25062;-60
2023/04/29 05:27:58;;;;;;;;;6.50;5.00;;;;;;;;119737;1190;25069;-61
2023/04/29 05:30:26;;;;;;;;;6.33;5.00;;;;;;;;119878;1190;25270;-61
2023/04/29 05:32:55;;;;;;;;;5.00;5.00;;;;;;;;119903;1181;25557;-61
2023/04/29 05:35:24;;;;;;;;;4.50;4.00;;;;;;;;119982;1181;25591;-61
2023/04/29 05:37:52;;;;;;;;;6.00;4.00;;;;;;;;120109;1180;24960;-60
2023/04/29 05:40:22;;;;;;;;;4.67;4.33;;;;;;;;120071;1182;25014;-60
2023/04/29 05:42:50;;;;;;;;;4.00;4.00;;;;;;;;119976;1189;25710;-60
2023/04/29 05:45:19;;;;;;;;;5.75;2.00;;;;;;;;120240;1189;25329;-60
2023/04/29 05:47:47;;;;;;;;;4.50;4.50;;;;;;;;120083;1189;25093;-61
2023/04/29 05:50:15;;;;;;;;;2.50;0.75;;;;;;;;119969;1178;25090;-61
2023/04/29 05:52:43;;;;;;;;;4.33;3.00;;;;;;;;120173;1189;25639;-61
2023/04/29 05:55:12;;;;;;;;;4.67;4.67;;;;;;;;119967;1188;25569;-61
2023/04/29 05:57:40;;;;;;;;;8.00;4.00;;;;;;;;119864;1190;25348;-61
2023/04/29 06:00:08;;;;;;;;;5.00;5.00;;;;;;;;119913;1181;25566;-62
2023/04/29 06:02:38;;;;;;;;;4.50;4.50;;;;;;;;119890;1190;25615;-63
2023/04/29 06:05:25;;;;;;;;;5.50;5.50;;;;;;;;119778;1191;24948;-64
2023/04/29 06:07:54;;;;;;;;;7.00;6.00;;;;;;;;119886;1182;25460;-63
2023/04/29 06:10:23;;;;;;;;;4.75;4.75;;;;;;;;119893;1190;25282;-63
2023/04/29 06:12:51;;;;;;;;;4.75;4.00;;;;;;;;119899;1186;25434;-63
2023/04/29 06:15:19;;;;;;;;;4.50;4.00;;;;;;;;119931;1190;24798;-63
2023/04/29 06:17:47;;;;;;;;;6.67;4.00;;;;;;;;119912;1182;24777;-63
2023/04/29 06:20:15;;;;;;;;;6.75;6.00;;;;;;;;119904;1190;25243;-64
2023/04/29 06:22:45;;;;;;;;;6.00;4.00;;;;;;;;119863;1190;24876;-64
2023/04/29 06:25:13;;;;;;;;;6.33;6.33;;;;;;;;119882;1182;25483;-64
2023/04/29 06:27:42;;;;;;;;;7.25;6.25;;;;;;;;119882;1190;25675;-66
2023/04/29 06:30:10;;;;;;;;;49.50;38.50;;;;;;;;119886;1190;25122;-63
2023/04/29 06:32:39;;;;;;;;;26.00;20.33;;;;;;;;119888;1190;25623;-67
2023/04/29 06:35:07;;;;;;;;;531.67;434.67;;;;;;;;119912;1182;24693;-61
2023/04/29 06:37:36;;;;;;;;;412.33;339.67;;;;;;;;119908;1190;24952;-62
2023/04/29 06:40:06;;;;;;;;;320.00;252.67;;;;;;;;119959;1189;25676;-62
2023/04/29 06:42:35;;;;;;;;;186.50;172.00;;;;;;;;119962;1189;25843;-63
2023/04/29 06:45:04;;;;;;;;;134.50;116.50;;;;;;;;119892;1190;25600;-63
2023/04/29 06:47:32;;;;;;;;;129.75;111.50;;;;;;;;119908;1182;24792;-62
2023/04/29 06:50:00;;;;;;;;;124.67;106.67;;;;;;;;119875;1190;25310;-63
2023/04/29 06:52:30;;;;;;;;;121.00;103.25;;;;;;;;119886;1190;25011;-63
2023/04/29 06:54:58;;;;;;;;;92.00;78.67;;;;;;;;120012;1189;25551;-61
2023/04/29 06:57:26;;;;;;;;;94.33;88.67;;;;;;;;120227;1189;24743;-66
2023/04/29 06:59:54;;;;;;;;;171.50;146.25;;;;;;;;120232;1189;24941;-65
2023/04/29 07:02:23;;;;;;;;;155.00;138.67;;;;;;;;120012;1189;24915;-66
2023/04/29 07:04:51;;;;;;;;;159.25;139.75;;;;;;;;119909;1190;25130;-65
2023/04/29 07:07:19;;;;;;;;;144.67;123.67;;;;;;;;119902;1182;25439;-65
2023/04/29 07:09:50;;;;;;;;;154.75;133.00;;;;;;;;119874;1190;25114;-66
2023/04/29 07:12:19;;;;;;;;;145.67;121.67;;;;;;;;119913;1182;24713;-66
2023/04/29 07:14:47;;;;;;;;;136.67;118.67;;;;;;;;119990;1177;25708;-66
2023/04/29 07:17:16;;;;;;;;;144.25;128.50;;;;;;;;119926;1186;25280;-78
2023/04/29 07:19:44;;;;;;;;;135.50;117.25;;;;;;;;119854;1188;25524;-65
2023/04/29 07:22:12;;;;;;;;;133.50;121.00;;;;;;;;119896;1190;25108;-64
2023/04/29 07:24:40;;;;;;;;;134.00;121.00;;;;;;;;119927;1182;25060;-67
2023/04/29 07:27:08;;;;;;;;;126.50;110.00;;;;;;;;119901;1182;24782;-67
2023/04/29 07:29:37;;;;;;;;;129.33;107.33;;;;;;;;119914;1177;25527;-68
2023/04/29 07:32:05;;;;;;;;;129.00;110.00;;;;;;;;119898;1190;25436;-67
2023/04/29 07:34:33;;;;;;;;;131.75;110.00;;;;;;;;119909;1183;24733;-65
2023/04/29 07:37:01;;;;;;;;;117.33;102.33;;;;;;;;119897;1186;25318;-66
2023/04/29 07:39:30;;;;;;;;;118.75;102.75;;;;;;;;119889;1190;25467;-71
2023/04/29 07:41:59;;;;;;;;;107.25;99.75;;;;;;;;119887;1190;25315;-70
2023/04/29 07:44:27;;;;;;;;;115.67;97.00;;;;;;;;119892;1190;25391;-68
2023/04/29 07:46:55;;;;;;;;;110.00;94.67;;;;;;;;119887;1190;25424;-68
2023/04/29 07:49:24;;;;;;;;;113.75;96.25;;;;;;;;119927;1182;25202;-67
2023/04/29 07:51:53;;;;;;;;;106.00;93.67;;;;;;;;119899;1190;25366;-68
2023/04/29 07:54:21;;;;;;;;;97.67;85.00;;;;;;;;119908;1190;25062;-67
2023/04/29 07:56:49;;;;;;;;;93.50;80.25;;;;;;;;119902;1183;25668;-74
2023/04/29 07:59:17;;;;;;;;;92.25;72.75;;;;;;;;119886;1182;25351;-68
2023/04/29 08:01:45;;;;;;;;;84.00;77.67;;;;;;;;119943;1182;25311;-74
2023/04/29 08:04:14;;;;;;;;;96.75;82.00;;;;;;;;119969;1186;24961;-72
2023/04/29 08:06:43;;;;;;;;;93.33;79.00;;;;;;;;119977;1186;25128;-71
2023/04/29 08:09:11;;;;;;;;;95.25;80.50;;;;;;;;119909;1186;25220;-72
2023/04/29 08:11:39;;;;;;;;;88.00;71.00;;;;;;;;119963;1181;25321;-71
2023/04/29 08:14:07;;;;;;;;;83.50;73.75;;;;;;;;119926;1182;25278;-69
2023/04/29 08:16:36;;;;;;;;;87.50;73.00;;;;;;;;119968;1189;24841;-70
2023/04/29 08:19:04;;;;;;;;;81.50;70.25;;;;;;;;120018;1186;25207;-71
2023/04/29 08:21:33;;;;;;;;;80.50;68.50;;;;;;;;119914;1182;25076;-69
2023/04/29 08:24:01;;;;;;;;;81.67;71.00;;;;;;;;119889;1182;24818;-71
2023/04/29 08:26:32;;;;;;;;;79.50;67.50;;;;;;;;119908;1189;25429;-69
2023/04/29 08:29:00;;;;;;;;;81.33;64.67;;;;;;;;119953;1181;25382;-68
2023/04/29 08:31:28;;;;;;;;;78.25;66.50;;;;;;;;119862;1182;25256;-70
2023/04/29 08:33:57;;;;;;;;;74.00;56.25;;;;;;;;119894;1190;25514;-69
2023/04/29 08:36:28;;;;;;;;;77.75;61.25;;;;;;;;119893;1182;25366;-69
2023/04/29 08:38:57;;;;;;;;;73.75;58.25;;;;;;;;119907;1182;25637;-69
2023/04/29 08:41:25;;;;;;;;;68.67;53.00;;;;;;;;119895;1182;25375;-70
2023/04/29 08:43:53;;;;;;;;;72.00;55.67;;;;;;;;119941;1189;25012;-68
2023/04/29 08:46:25;;;;;;;;;77.67;61.67;;;;;;;;119920;1182;25284;-69
2023/04/29 08:48:55;;;;;;;;;68.50;52.00;;;;;;;;119899;1190;25292;-69
2023/04/29 08:51:23;;;;;;;;;67.00;53.00;;;;;;;;119902;1190;24976;-70
2023/04/29 08:53:51;;;;;;;;;72.33;52.33;;;;;;;;119896;1190;25105;-70
2023/04/29 08:56:20;;;;;;;;;71.33;54.00;;;;;;;;119910;1190;24936;-70
2023/04/29 08:58:53;;;;;;;;;66.67;52.00;;;;;;;;119883;1190;24752;-71
2023/04/29 09:01:22;;;;;;;;;65.33;51.33;;;;;;;;119890;1182;24882;-70
2023/04/29 09:04:00;;;;;;;;;63.33;48.00;;;;;;;;119872;1190;25582;-70
2023/04/29 09:06:32;;;;;;;;;68.33;52.33;;;;;;;;119914;1190;25021;-73
2023/04/29 09:09:00;;;;;;;;;70.00;53.50;;;;;;;;119910;1190;25029;-78
2023/04/29 09:11:29;;;;;;;;;74.33;56.33;;;;;;;;119872;1190;24949;-78
2023/04/29 09:14:03;;;;;;;;;75.67;65.00;;;;;;;;119712;1191;25297;-74
2023/04/29 09:16:31;;;;;;;;;61.00;47.67;;;;;;;;119710;1191;25538;-73
2023/04/29 09:18:59;;;;;;;;;48.50;36.00;;;;;;;;119894;1191;25538;-73
2023/04/29 09:21:31;;;;;;;;;44.67;38.33;;;;;;;;119907;1191;24687;-75
2023/04/29 09:24:01;;;;;;;;;57.33;43.33;;;;;;;;119736;1191;25372;-76
2023/04/29 09:26:42;;;;;;;;;54.00;43.00;;;;;;;;119891;1191;25163;-76
2023/04/29 09:29:17;;;;;;;;;58.00;46.50;;;;;;;;119912;1177;25809;-74
2023/04/29 09:31:46;;;;;;;;;50.33;42.00;;;;;;;;119822;1191;25186;-74
2023/04/29 09:34:15;;;;;;;;;51.50;41.00;;;;;;;;119822;1191;25428;-79
2023/04/29 09:36:47;;;;;;;;;53.00;43.00;;;;;;;;119881;1191;25348;-74
2023/04/29 09:39:21;;;;;;;;;54.00;40.67;;;;;;;;119936;1182;25221;-72
2023/04/29 09:41:52;;;;;;;;;49.00;36.67;;;;;;;;119900;1190;25497;-73
2023/04/29 09:44:22;;;;;;;;;50.33;39.33;;;;;;;;119908;1190;25485;-76
2023/04/29 09:47:10;;;;;;;;;48.00;37.00;;;;;;;;119732;1190;25565;-76
2023/04/29 09:49:44;;;;;;;;;56.33;41.33;;;;;;;;119859;1190;25419;-81
2023/04/29 09:52:15;;;;;;;;;45.00;37.00;;;;;;;;119908;1186;25480;-79
2023/04/29 09:54:43;;;;;;;;;45.67;37.00;;;;;;;;119784;1183;25238;-78
2023/04/29 09:57:15;;;;;;;;;47.00;38.50;;;;;;;;119954;1189;25705;-77
2023/04/29 09:59:43;;;;;;;;;43.00;37.00;;;;;;;;120070;1189;25353;-79
2023/04/29 10:02:17;;;;;;;;;49.50;37.00;;;;;;;;119936;1186;24740;-76
2023/04/29 10:04:50;;;;;;;;;48.00;38.33;;;;;;;;119738;1184;25074;-70
2023/04/29 10:07:19;;;;;;;;;50.00;39.67;;;;;;;;119879;1191;25490;-78
2023/04/29 10:09:47;;;;;;;;;48.00;37.00;;;;;;;;119731;1190;25426;-78
2023/04/29 10:12:18;;;;;;;;;46.00;36.00;;;;;;;;119884;1190;24885;-70
2023/04/29 10:15:08;;;;;;;;;46.00;36.67;;;;;;;;119744;1186;24851;-80
2023/04/29 10:17:48;;;;;;;;;36.00;33.00;;;;;;;;119893;1186;25269;-79
2023/04/29 10:20:23;;;;;;;;;42.33;31.00;;;;;;;;119910;1187;24771;-79
2023/04/29 10:22:56;;;;;;;;;45.00;35.33;;;;;;;;119781;1183;25655;-79
2023/04/29 10:25:27;;;;;;;;;42.33;36.00;;;;;;;;119909;1187;25076;-76
2023/04/29 10:27:55;;;;;;;;;40.00;33.00;;;;;;;;119889;1190;25506;-74
2023/04/29 10:30:24;;;;;;;;;40.67;34.00;;;;;;;;119891;1190;25108;-74
2023/04/29 10:32:52;;;;;;;;;37.00;33.00;;;;;;;;119932;1190;24742;-74
2023/04/29 10:35:23;;;;;;;;;37.67;32.00;;;;;;;;119986;1187;25330;-75
2023/04/29 10:37:52;;;;;;;;;41.33;35.33;;;;;;;;119999;1186;24713;-77
2023/04/29 10:40:46;;;;;;;;;42.33;33.00;;;;;;;;119929;1187;24864;-76
2023/04/29 10:43:14;;;;;;;;;41.00;32.00;;;;;;;;119895;1182;25682;-72
2023/04/29 10:45:43;;;;;;;;;34.33;30.00;;;;;;;;119914;1182;25614;-74
2023/04/29 10:48:12;;;;;;;;;37.33;32.00;;;;;;;;119904;1187;24744;-80
2023/04/29 10:50:46;;;;;;;;;36.00;30.00;;;;;;;;119888;1191;25090;-77
2023/04/29 10:53:18;;;;;;;;;29.00;29.00;;;;;;;;120010;1177;25075;-79
2023/04/29 10:55:54;;;;;;;;;41.00;30.00;;;;;;;;119885;1190;25095;-71
2023/04/29 10:58:43;;;;;;;;;29.00;26.75;;;;;;;;119725;1183;25349;-71
2023/04/29 11:01:14;;;;;;;;;34.00;29.00;;;;;;;;119941;1190;25089;-68
2023/04/29 11:03:58;;;;;;;;;28.00;26.75;;;;;;;;119904;1190;25393;-67
2023/04/29 11:06:33;;;;;;;;;34.75;29.75;;;;;;;;119722;1190;25467;-73
2023/04/29 11:09:13;;;;;;;;;28.33;23.00;;;;;;;;119984;1181;25443;-71
2023/04/29 11:11:45;;;;;;;;;39.00;33.33;;;;;;;;119908;1190;25794;-72
2023/04/29 11:14:15;;;;;;;;;42.00;35.00;;;;;;;;119915;1186;24850;-68
2023/04/29 11:17:03;;;;;;;;;47.33;36.00;;;;;;;;119934;1190;25292;-72
2023/04/29 11:19:35;;;;;;;;;34.00;28.00;;;;;;;;119870;1190;24731;-70
2023/04/29 11:22:25;;;;;;;;;38.25;31.75;;;;;;;;119917;1186;25489;-66
2023/04/29 11:25:02;;;;;;;;;39.00;30.00;;;;;;;;119894;1182;24934;-72
2023/04/29 11:27:35;;;;;;;;;34.50;30.00;;;;;;;;119887;1190;25070;-71
2023/04/29 11:30:05;;;;;;;;;28.33;23.33;;;;;;;;119928;1190;24911;-70
2023/04/29 11:32:41;;;;;;;;;30.00;27.33;;;;;;;;119724;1189;25259;-68
2023/04/29 11:35:14;;;;;;;;;32.00;30.00;;;;;;;;119745;1180;25248;-72
2023/04/29 11:37:44;;;;;;;;;31.00;28.00;;;;;;;;119878;1182;25077;-73
2023/04/29 11:40:13;;;;;;;;;57.50;45.00;;;;;;;;119905;1190;25605;-75
2023/04/29 11:42:44;;;;;;;;;39.67;32.33;;;;;;;;119960;1189;25026;-76
2023/04/29 11:45:14;;;;;;;;;32.00;29.67;;;;;;;;119952;1190;24964;-78
2023/04/29 11:47:44;;;;;;;;;24.75;22.50;;;;;;;;119919;1182;25327;-77
2023/04/29 11:50:18;;;;;;;;;24.00;19.00;;;;;;;;119906;1190;25649;-76
2023/04/29 11:52:48;;;;;;;;;22.00;18.00;;;;;;;;119750;1189;25467;-75
2023/04/29 11:55:16;;;;;;;;;17.67;14.00;;;;;;;;119925;1190;25271;-74
2023/04/29 11:57:48;;;;;;;;;14.33;14.00;;;;;;;;119898;1190;25661;-74
2023/04/29 12:00:16;;;;;;;;;18.50;18.50;;;;;;;;119951;1181;25131;-75
2023/04/29 12:02:45;;;;;;;;;24.50;18.50;;;;;;;;119903;1190;25443;-73
2023/04/29 12:05:15;;;;;;;;;19.75;19.00;;;;;;;;119921;1190;26164;-74
2023/04/29 12:07:44;;;;;;;;;26.33;23.67;;;;;;;;119979;1182;24978;-72
2023/04/29 12:10:13;;;;;;;;;19.75;18.25;;;;;;;;119912;1189;24748;-67
2023/04/29 12:12:45;;;;;;;;;19.00;17.00;;;;;;;;119899;1181;24924;-69
2023/04/29 12:15:13;;;;;;;;;24.75;20.50;;;;;;;;119908;1178;25657;-65
2023/04/29 12:17:42;;;;;;;;;24.50;22.50;;;;;;;;119900;1190;24907;-64
2023/04/29 12:20:11;;;;;;;;;29.67;24.00;;;;;;;;119919;1190;25522;-64
2023/04/29 12:22:42;;;;;;;;;20.50;16.25;;;;;;;;119900;1186;24856;-63
2023/04/29 12:25:11;;;;;;;;;18.00;15.50;;;;;;;;119897;1182;26438;-64
2023/04/29 12:27:42;;;;;;;;;18.50;15.00;;;;;;;;119916;1186;25168;-66
2023/04/29 12:30:11;;;;;;;;;10.75;8.50;;;;;;;;119875;1190;24730;-65
2023/04/29 12:32:40;;;;;;;;;20.00;17.00;;;;;;;;119954;1189;25511;-66
2023/04/29 12:35:16;;;;;;;;;22.33;19.00;;;;;;;;119879;1190;24935;-67
2023/04/29 12:37:49;;;;;;;;;20.00;16.75;;;;;;;;119938;1182;25243;-69
2023/04/29 12:40:19;;;;;;;;;21.00;17.67;;;;;;;;119900;1190;24751;-68
2023/04/29 12:42:47;;;;;;;;;19.67;15.33;;;;;;;;119981;1182;24773;-67
2023/04/29 12:45:30;;;;;;;;;18.00;15.00;;;;;;;;119909;1182;25114;-66
2023/04/29 12:48:00;;;;;;;;;16.25;15.75;;;;;;;;119912;1189;24942;-68
2023/04/29 12:50:36;;;;;;;;;18.75;14.75;;;;;;;;119893;1190;25349;-69
2023/04/29 12:53:06;;;;;;;;;17.25;16.00;;;;;;;;119931;1189;25074;-72
2023/04/29 12:55:36;;;;;;;;;16.00;12.25;;;;;;;;119914;1189;25497;-67
2023/04/29 12:58:06;;;;;;;;;18.75;15.25;;;;;;;;119890;1190;25507;-68
2023/04/29 13:00:36;;;;;;;;;19.00;15.00;;;;;;;;119711;1187;24713;-76
2023/04/29 13:03:04;;;;;;;;;17.50;13.25;;;;;;;;119937;1182;25519;-75
2023/04/29 13:05:33;;;;;;;;;15.25;13.00;;;;;;;;119875;1182;25501;-78
2023/04/29 13:08:04;;;;;;;;;15.00;11.00;;;;;;;;119906;1190;25311;-72
2023/04/29 13:10:33;;;;;;;;;13.67;11.67;;;;;;;;119881;1182;24746;-75
2023/04/29 13:13:01;;;;;;;;;11.25;11.00;;;;;;;;119896;1189;25654;-73
2023/04/29 13:15:29;;;;;;;;;13.00;12.50;;;;;;;;119903;1190;25712;-73
2023/04/29 13:17:57;;;;;;;;;15.25;12.00;;;;;;;;119892;1190;25304;-70
2023/04/29 13:20:25;;;;;;;;;13.00;10.00;;;;;;;;119886;1186;24934;-70
2023/04/29 13:22:54;;;;;;;;;13.75;13.50;;;;;;;;119911;1191;25414;-72
2023/04/29 13:25:22;;;;;;;;;12.00;12.00;;;;;;;;119902;1182;25480;-72
2023/04/29 13:27:50;;;;;;;;;14.75;11.00;;;;;;;;119926;1191;25034;-72
2023/04/29 13:30:18;;;;;;;;;14.50;11.00;;;;;;;;119770;1190;25615;-74
2023/04/29 13:32:47;;;;;;;;;12.00;11.50;;;;;;;;119899;1190;24723;-74
2023/04/29 13:35:23;;;;;;;;;15.50;12.00;;;;;;;;119927;1182;25561;-73
2023/04/29 13:37:51;;;;;;;;;16.00;12.67;;;;;;;;119910;1186;25416;-73
2023/04/29 13:40:19;;;;;;;;;14.00;11.00;;;;;;;;119895;1190;25704;-73
2023/04/29 13:42:48;;;;;;;;;12.75;12.75;;;;;;;;119946;1181;24738;-73
2023/04/29 13:45:28;;;;;;;;;13.00;11.50;;;;;;;;119913;1190;25291;-71
2023/04/29 13:47:57;;;;;;;;;18.25;13.00;;;;;;;;119714;1190;24852;-72
2023/04/29 13:50:44;;;;;;;;;13.75;12.25;;;;;;;;119918;1190;25208;-71
2023/04/29 13:53:16;;;;;;;;;13.75;11.50;;;;;;;;119926;1190;25156;-74
2023/04/29 13:55:47;;;;;;;;;13.75;12.25;;;;;;;;119891;1190;25509;-73
2023/04/29 13:58:18;;;;;;;;;16.33;14.33;;;;;;;;119901;1190;25401;-73
2023/04/29 14:00:49;;;;;;;;;17.75;14.50;;;;;;;;119898;1190;25066;-69
2023/04/29 14:03:20;;;;;;;;;14.67;12.00;;;;;;;;119890;1190;26293;-75
2023/04/29 14:05:48;;;;;;;;;14.50;12.00;;;;;;;;119901;1186;24826;-72
2023/04/29 14:08:17;;;;;;;;;17.00;12.25;;;;;;;;119883;1191;25728;-71
2023/04/29 14:10:45;;;;;;;;;19.00;13.75;;;;;;;;119932;1182;25562;-80
2023/04/29 14:13:13;;;;;;;;;16.33;14.33;;;;;;;;119930;1187;24954;-72
2023/04/29 14:15:41;;;;;;;;;17.00;12.00;;;;;;;;120084;1177;25057;-68
2023/04/29 14:18:10;;;;;;;;;12.50;11.50;;;;;;;;119906;1190;24893;-69
2023/04/29 14:20:39;;;;;;;;;19.00;11.50;;;;;;;;119894;1190;25135;-65
2023/04/29 14:23:08;;;;;;;;;13.75;13.25;;;;;;;;119911;1190;25347;-75
2023/04/29 14:25:36;;;;;;;;;16.33;9.00;;;;;;;;119912;1181;24756;-70
2023/04/29 14:28:04;;;;;;;;;12.75;9.25;;;;;;;;119938;1182;25074;-73
2023/04/29 14:30:32;;;;;;;;;9.67;8.00;;;;;;;;119890;1187;25365;-67